createdAt,value
2018-06-17T00:00:15.780Z,20.81
2018-06-17T00:01:15.676Z,20.74
2018-06-17T00:02:15.587Z,20.67
2018-06-17T00:03:15.494Z,20.67
2018-06-17T00:04:15.405Z,20.69
2018-06-17T00:05:15.312Z,20.62
2018-06-17T00:06:15.223Z,20.60
2018-06-17T00:07:15.131Z,20.62
2018-06-17T00:08:15.029Z,20.59
2018-06-17T00:09:14.937Z,20.51
2018-06-17T00:10:14.849Z,20.50
2018-06-17T00:11:14.760Z,20.44
2018-06-17T00:12:14.664Z,20.43
2018-06-17T00:13:14.574Z,20.40
2018-06-17T00:14:14.471Z,20.32
2018-06-17T00:15:14.379Z,20.43
2018-06-17T00:16:14.289Z,20.39
2018-06-17T00:17:14.198Z,20.28
2018-06-17T00:18:14.110Z,20.36
2018-06-17T00:19:14.017Z,20.31
2018-06-17T00:20:13.926Z,20.32
2018-06-17T00:21:13.822Z,20.22
2018-06-17T00:22:13.731Z,20.13
2018-06-17T00:23:13.641Z,20.14
2018-06-17T00:24:13.562Z,20.13
2018-06-17T00:25:13.459Z,20.10
2018-06-17T00:26:13.356Z,20.16
2018-06-17T00:27:13.266Z,20.18
2018-06-17T00:28:13.175Z,20.11
2018-06-17T00:29:13.082Z,20.19
2018-06-17T00:30:12.993Z,20.11
2018-06-17T00:31:12.901Z,20.11
2018-06-17T00:32:12.799Z,20.07
2018-06-17T00:33:12.708Z,20.14
2018-06-17T00:34:12.616Z,20.13
2018-06-17T00:35:12.526Z,20.07
2018-06-17T00:36:12.434Z,20.09
2018-06-17T00:37:12.347Z,20.07
2018-06-17T00:38:12.241Z,20.09
2018-06-17T00:39:12.150Z,20.10
2018-06-17T00:40:12.060Z,20.21
2018-06-17T00:41:12.268Z,20.25
2018-06-17T00:42:11.878Z,20.39
2018-06-17T00:43:11.787Z,20.41
2018-06-17T00:44:11.683Z,20.37
2018-06-17T00:45:11.593Z,20.44
2018-06-17T00:46:11.501Z,20.43
2018-06-17T00:47:11.451Z,20.36
2018-06-17T00:48:11.320Z,20.26
2018-06-17T00:49:11.218Z,20.41
2018-06-17T00:50:11.127Z,20.41
2018-06-17T00:51:11.035Z,20.39
2018-06-17T00:52:10.946Z,20.22
2018-06-17T00:53:10.853Z,20.18
2018-06-17T00:54:10.750Z,20.24
2018-06-17T00:55:10.660Z,20.22
2018-06-17T00:56:10.568Z,20.16
2018-06-17T00:57:10.478Z,20.11
2018-06-17T00:58:10.388Z,20.16
2018-06-17T00:59:10.285Z,20.10
2018-06-17T01:00:10.194Z,20.11
2018-06-17T01:01:10.104Z,20.03
2018-06-17T01:02:10.013Z,20.03
2018-06-17T01:03:09.920Z,20.03
2018-06-17T01:04:09.818Z,19.94
2018-06-17T01:05:09.727Z,19.89
2018-06-17T01:06:09.885Z,19.86
2018-06-17T01:07:09.548Z,19.81
2018-06-17T01:08:09.454Z,19.74
2018-06-17T01:09:09.353Z,19.79
2018-06-17T01:10:09.260Z,19.66
2018-06-17T01:11:09.169Z,19.62
2018-06-17T01:12:09.079Z,19.64
2018-06-17T01:13:08.987Z,19.69
2018-06-17T01:14:08.884Z,19.59
2018-06-17T01:15:08.807Z,19.56
2018-06-17T01:16:08.705Z,19.55
2018-06-17T01:17:08.612Z,19.47
2018-06-17T01:18:08.509Z,19.54
2018-06-17T01:19:08.417Z,19.51
2018-06-17T01:20:08.334Z,19.44
2018-06-17T01:21:08.235Z,19.40
2018-06-17T01:22:08.136Z,19.36
2018-06-17T01:23:08.043Z,19.33
2018-06-17T01:24:07.950Z,19.26
2018-06-17T01:25:07.860Z,19.14
2018-06-17T01:26:08.021Z,19.24
2018-06-17T01:27:07.666Z,19.19
2018-06-17T01:28:07.577Z,19.15
2018-06-17T01:29:07.484Z,19.19
2018-06-17T01:30:07.394Z,19.16
2018-06-17T01:31:07.302Z,19.14
2018-06-17T01:32:07.200Z,19.16
2018-06-17T01:33:07.109Z,19.16
2018-06-17T01:34:07.017Z,19.15
2018-06-17T01:35:06.927Z,19.39
2018-06-17T01:36:06.824Z,19.48
2018-06-17T01:37:06.746Z,19.49
2018-06-17T01:38:06.643Z,19.51
2018-06-17T01:39:06.552Z,19.56
2018-06-17T01:40:06.448Z,19.45
2018-06-17T01:41:06.359Z,19.44
2018-06-17T01:42:06.268Z,19.40
2018-06-17T01:43:06.176Z,19.40
2018-06-17T01:44:06.074Z,19.39
2018-06-17T01:45:05.981Z,19.26
2018-06-17T01:46:05.891Z,19.30
2018-06-17T01:47:05.799Z,19.14
2018-06-17T01:48:05.696Z,19.29
2018-06-17T01:49:05.606Z,19.19
2018-06-17T01:50:05.558Z,19.14
2018-06-17T01:51:05.424Z,19.11
2018-06-17T01:52:05.323Z,19.08
2018-06-17T01:53:05.229Z,19.00
2018-06-17T01:54:05.140Z,19.11
2018-06-17T01:55:05.047Z,19.02
2018-06-17T01:56:04.945Z,19.04
2018-06-17T01:57:04.855Z,18.92
2018-06-17T01:58:04.763Z,18.86
2018-06-17T01:59:04.661Z,18.86
2018-06-17T02:00:04.572Z,18.88
2018-06-17T02:01:04.479Z,18.95
2018-06-17T02:02:04.387Z,18.99
2018-06-17T02:03:04.285Z,18.86
2018-06-17T02:04:04.193Z,18.83
2018-06-17T02:05:04.102Z,18.74
2018-06-17T02:06:04.012Z,18.70
2018-06-17T02:07:03.909Z,18.75
2018-06-17T02:08:03.818Z,18.68
2018-06-17T02:09:03.740Z,18.78
2018-06-17T02:10:03.625Z,18.70
2018-06-17T02:11:03.533Z,18.63
2018-06-17T02:12:03.443Z,18.60
2018-06-17T02:13:03.352Z,18.52
2018-06-17T02:14:03.248Z,18.45
2018-06-17T02:15:03.156Z,18.47
2018-06-17T02:16:03.067Z,18.40
2018-06-17T02:17:02.975Z,18.40
2018-06-17T02:18:02.872Z,18.33
2018-06-17T02:19:02.782Z,18.38
2018-06-17T02:20:02.693Z,18.25
2018-06-17T02:21:02.900Z,18.29
2018-06-17T02:22:02.500Z,18.20
2018-06-17T02:23:02.405Z,18.28
2018-06-17T02:24:02.316Z,18.11
2018-06-17T02:25:02.223Z,18.15
2018-06-17T02:26:02.120Z,18.11
2018-06-17T02:27:02.034Z,18.03
2018-06-17T02:28:01.951Z,18.04
2018-06-17T02:29:01.836Z,17.95
2018-06-17T02:30:01.746Z,18.05
2018-06-17T02:31:01.654Z,17.97
2018-06-17T02:32:01.555Z,18.00
2018-06-17T02:33:01.464Z,17.89
2018-06-17T02:34:01.373Z,17.89
2018-06-17T02:35:01.281Z,17.89
2018-06-17T02:36:01.176Z,17.87
2018-06-17T02:37:01.084Z,17.89
2018-06-17T02:38:00.994Z,17.87
2018-06-17T02:39:00.891Z,17.92
2018-06-17T02:40:00.799Z,17.90
2018-06-17T02:41:00.709Z,17.90
2018-06-17T02:42:00.621Z,17.90
2018-06-17T02:43:00.516Z,17.95
2018-06-17T02:44:00.425Z,17.85
2018-06-17T02:45:00.347Z,17.90
2018-06-17T02:46:00.230Z,17.87
2018-06-17T02:47:00.140Z,17.82
2018-06-17T02:48:00.048Z,17.82
2018-06-17T02:48:59.959Z,17.74
2018-06-17T02:49:59.855Z,17.72
2018-06-17T02:50:59.763Z,17.70
2018-06-17T02:51:59.673Z,17.72
2018-06-17T02:52:59.570Z,17.64
2018-06-17T02:53:59.479Z,17.64
2018-06-17T02:54:59.389Z,17.71
2018-06-17T02:55:59.285Z,17.59
2018-06-17T02:56:59.195Z,17.65
2018-06-17T02:57:59.103Z,17.64
2018-06-17T02:58:59.011Z,17.67
2018-06-17T02:59:58.911Z,17.60
2018-06-17T03:00:58.819Z,17.51
2018-06-17T03:01:58.728Z,17.46
2018-06-17T03:02:58.623Z,17.48
2018-06-17T03:03:58.555Z,17.46
2018-06-17T03:04:58.442Z,17.49
2018-06-17T03:05:58.339Z,17.45
2018-06-17T03:06:58.249Z,17.52
2018-06-17T03:07:58.157Z,17.56
2018-06-17T03:08:58.058Z,17.51
2018-06-17T03:09:57.963Z,17.51
2018-06-17T03:10:57.872Z,17.64
2018-06-17T03:11:57.770Z,17.64
2018-06-17T03:12:57.679Z,17.60
2018-06-17T03:13:57.600Z,17.63
2018-06-17T03:14:57.496Z,17.59
2018-06-17T03:15:57.395Z,17.65
2018-06-17T03:16:57.301Z,17.72
2018-06-17T03:17:57.211Z,17.71
2018-06-17T03:18:57.111Z,17.76
2018-06-17T03:19:57.016Z,17.82
2018-06-17T03:20:56.926Z,17.85
2018-06-17T03:21:56.824Z,17.86
2018-06-17T03:22:56.732Z,17.80
2018-06-17T03:23:56.644Z,17.92
2018-06-17T03:24:56.550Z,17.87
2018-06-17T03:25:56.447Z,17.92
2018-06-17T03:26:56.357Z,17.89
2018-06-17T03:27:56.266Z,17.87
2018-06-17T03:28:56.162Z,17.92
2018-06-17T03:29:56.073Z,17.95
2018-06-17T03:30:55.980Z,18.03
2018-06-17T03:31:55.877Z,17.97
2018-06-17T03:32:55.787Z,18.03
2018-06-17T03:33:55.695Z,18.01
2018-06-17T03:34:55.592Z,17.97
2018-06-17T03:35:55.502Z,18.05
2018-06-17T03:36:55.410Z,18.10
2018-06-17T03:37:55.345Z,18.11
2018-06-17T03:38:55.217Z,18.13
2018-06-17T03:39:55.126Z,18.19
2018-06-17T03:40:55.037Z,18.07
2018-06-17T03:41:54.957Z,18.08
2018-06-17T03:42:54.841Z,18.11
2018-06-17T03:43:54.750Z,18.13
2018-06-17T03:44:54.648Z,18.11
2018-06-17T03:45:54.806Z,18.15
2018-06-17T03:46:54.468Z,18.10
2018-06-17T03:47:54.377Z,18.07
2018-06-17T03:48:54.270Z,18.11
2018-06-17T03:49:54.181Z,18.28
2018-06-17T03:50:54.089Z,18.23
2018-06-17T03:51:53.987Z,18.44
2018-06-17T03:52:53.896Z,18.50
2018-06-17T03:53:53.804Z,18.47
2018-06-17T03:54:53.719Z,18.47
2018-06-17T03:55:53.611Z,18.50
2018-06-17T03:56:53.519Z,18.56
2018-06-17T03:57:53.429Z,18.63
2018-06-17T03:58:53.337Z,18.66
2018-06-17T03:59:53.235Z,18.70
2018-06-17T04:00:53.145Z,19.00
2018-06-17T04:01:53.053Z,19.39
2018-06-17T04:02:52.951Z,19.81
2018-06-17T04:03:52.859Z,20.22
2018-06-17T04:04:52.768Z,20.37
2018-06-17T04:05:52.677Z,20.48
2018-06-17T04:06:52.586Z,20.51
2018-06-17T04:07:52.483Z,20.66
2018-06-17T04:08:52.393Z,20.56
2018-06-17T04:09:52.303Z,20.65
2018-06-17T04:10:52.212Z,20.41
2018-06-17T04:11:52.125Z,20.40
2018-06-17T04:12:52.016Z,20.51
2018-06-17T04:13:51.926Z,20.47
2018-06-17T04:14:51.834Z,20.43
2018-06-17T04:15:51.745Z,20.43
2018-06-17T04:16:51.653Z,20.52
2018-06-17T04:17:51.550Z,20.60
2018-06-17T04:18:51.460Z,20.63
2018-06-17T04:19:51.368Z,20.87
2018-06-17T04:20:51.277Z,20.99
2018-06-17T04:21:51.186Z,21.29
2018-06-17T04:22:51.096Z,21.37
2018-06-17T04:23:50.992Z,21.42
2018-06-17T04:24:50.902Z,21.22
2018-06-17T04:25:51.061Z,21.29
2018-06-17T04:26:50.720Z,21.46
2018-06-17T04:27:50.631Z,21.45
2018-06-17T04:28:50.538Z,21.60
2018-06-17T04:29:50.437Z,21.50
2018-06-17T04:30:50.345Z,21.67
2018-06-17T04:31:50.253Z,21.79
2018-06-17T04:32:50.164Z,21.89
2018-06-17T04:33:50.084Z,21.85
2018-06-17T04:34:49.982Z,21.88
2018-06-17T04:35:50.190Z,21.98
2018-06-17T04:36:49.800Z,22.14
2018-06-17T04:37:49.698Z,22.22
2018-06-17T04:38:49.605Z,22.55
2018-06-17T04:39:49.517Z,22.78
2018-06-17T04:40:49.421Z,23.13
2018-06-17T04:41:49.334Z,23.48
2018-06-17T04:42:49.242Z,23.73
2018-06-17T04:43:49.151Z,24.05
2018-06-17T04:44:49.060Z,24.32
2018-06-17T04:45:49.220Z,24.51
2018-06-17T04:46:48.879Z,24.77
2018-06-17T04:47:48.788Z,25.04
2018-06-17T04:48:48.699Z,25.21
2018-06-17T04:49:48.606Z,25.32
2018-06-17T04:50:48.516Z,25.53
2018-06-17T04:51:48.425Z,25.77
2018-06-17T04:52:48.334Z,25.93
2018-06-17T04:53:48.245Z,26.26
2018-06-17T04:54:48.152Z,26.37
2018-06-17T04:55:48.062Z,26.47
2018-06-17T04:56:47.970Z,26.75
2018-06-17T04:57:47.881Z,26.71
2018-06-17T04:58:47.789Z,26.68
2018-06-17T04:59:47.699Z,26.31
2018-06-17T05:00:47.608Z,26.34
2018-06-17T05:01:47.518Z,25.88
2018-06-17T05:02:47.426Z,25.50
2018-06-17T05:03:47.336Z,25.11
2018-06-17T05:04:47.246Z,24.93
2018-06-17T05:05:47.167Z,24.53
2018-06-17T05:06:47.076Z,24.48
2018-06-17T05:07:46.984Z,24.58
2018-06-17T05:08:46.894Z,24.70
2018-06-17T05:09:46.803Z,24.91
2018-06-17T05:10:46.713Z,25.28
2018-06-17T05:11:46.622Z,25.63
2018-06-17T05:12:46.531Z,25.83
2018-06-17T05:13:46.440Z,26.06
2018-06-17T05:14:46.364Z,26.21
2018-06-17T05:15:46.275Z,26.56
2018-06-17T05:16:46.179Z,26.83
2018-06-17T05:17:46.090Z,27.07
2018-06-17T05:18:45.999Z,27.20
2018-06-17T05:19:45.908Z,27.26
2018-06-17T05:20:45.816Z,27.36
2018-06-17T05:21:45.727Z,27.71
2018-06-17T05:22:45.649Z,27.65
2018-06-17T05:23:45.569Z,27.71
2018-06-17T05:24:45.466Z,27.89
2018-06-17T05:25:45.375Z,28.07
2018-06-17T05:26:45.285Z,28.07
2018-06-17T05:27:45.228Z,28.27
2018-06-17T05:28:45.119Z,28.44
2018-06-17T05:29:45.025Z,28.49
2018-06-17T05:30:44.934Z,28.59
2018-06-17T05:31:44.855Z,28.74
2018-06-17T05:32:44.770Z,28.89
2018-06-17T05:33:44.679Z,28.89
2018-06-17T05:34:44.583Z,28.75
2018-06-17T05:35:44.506Z,28.52
2018-06-17T05:36:44.417Z,28.27
2018-06-17T05:37:44.323Z,28.25
2018-06-17T05:38:44.232Z,28.14
2018-06-17T05:39:44.153Z,28.11
2018-06-17T05:40:44.077Z,28.25
2018-06-17T05:41:43.972Z,28.47
2018-06-17T05:42:43.894Z,28.78
2018-06-17T05:43:43.804Z,28.94
2018-06-17T05:44:43.712Z,29.12
2018-06-17T05:45:43.655Z,29.31
2018-06-17T05:46:43.543Z,29.07
2018-06-17T05:47:43.452Z,28.75
2018-06-17T05:48:43.378Z,28.20
2018-06-17T05:49:43.283Z,28.19
2018-06-17T05:50:43.205Z,27.95
2018-06-17T05:51:43.114Z,28.27
2018-06-17T05:52:43.024Z,27.98
2018-06-17T05:53:42.936Z,28.10
2018-06-17T05:54:42.855Z,28.20
2018-06-17T05:55:42.775Z,27.98
2018-06-17T05:56:42.686Z,28.05
2018-06-17T05:57:42.593Z,27.83
2018-06-17T05:58:42.508Z,28.04
2018-06-17T05:59:42.426Z,28.12
2018-06-17T06:00:42.336Z,27.54
2018-06-17T06:01:42.255Z,27.48
2018-06-17T06:02:42.165Z,27.96
2018-06-17T06:03:42.087Z,28.22
2018-06-17T06:04:42.001Z,28.23
2018-06-17T06:05:42.156Z,28.35
2018-06-17T06:06:41.827Z,28.26
2018-06-17T06:07:41.749Z,28.29
2018-06-17T06:08:41.657Z,28.85
2018-06-17T06:09:41.567Z,29.19
2018-06-17T06:10:41.477Z,29.53
2018-06-17T06:11:41.397Z,29.98
2018-06-17T06:12:41.307Z,29.32
2018-06-17T06:13:41.229Z,28.94
2018-06-17T06:14:41.165Z,29.14
2018-06-17T06:15:41.059Z,28.94
2018-06-17T06:16:40.970Z,29.39
2018-06-17T06:17:40.895Z,29.17
2018-06-17T06:18:40.801Z,29.35
2018-06-17T06:19:40.721Z,29.86
2018-06-17T06:20:40.931Z,30.10
2018-06-17T06:21:40.552Z,30.46
2018-06-17T06:22:40.461Z,30.61
2018-06-17T06:23:40.383Z,30.63
2018-06-17T06:24:40.355Z,30.44
2018-06-17T06:25:40.213Z,30.53
2018-06-17T06:26:40.127Z,30.59
2018-06-17T06:27:40.045Z,30.81
2018-06-17T06:28:39.955Z,30.72
2018-06-17T06:29:39.878Z,30.75
2018-06-17T06:30:39.784Z,30.57
2018-06-17T06:31:39.705Z,30.03
2018-06-17T06:32:39.617Z,29.86
2018-06-17T06:33:39.537Z,30.00
2018-06-17T06:34:39.459Z,30.43
2018-06-17T06:35:39.369Z,30.63
2018-06-17T06:36:39.289Z,31.15
2018-06-17T06:37:39.200Z,31.62
2018-06-17T06:38:39.121Z,31.78
2018-06-17T06:39:39.043Z,32.11
2018-06-17T06:40:38.951Z,32.38
2018-06-17T06:41:38.872Z,32.08
2018-06-17T06:42:38.786Z,32.01
2018-06-17T06:43:38.704Z,31.28
2018-06-17T06:44:38.626Z,31.10
2018-06-17T06:45:38.585Z,31.09
2018-06-17T06:46:38.456Z,30.99
2018-06-17T06:47:38.378Z,30.83
2018-06-17T06:48:38.293Z,30.80
2018-06-17T06:49:38.209Z,31.06
2018-06-17T06:50:38.118Z,31.52
2018-06-17T06:51:38.042Z,31.74
2018-06-17T06:52:37.961Z,32.18
2018-06-17T06:53:37.871Z,32.26
2018-06-17T06:54:37.794Z,31.58
2018-06-17T06:55:38.015Z,32.03
2018-06-17T06:56:37.627Z,31.70
2018-06-17T06:57:37.545Z,31.55
2018-06-17T06:58:37.466Z,31.18
2018-06-17T06:59:37.388Z,31.29
2018-06-17T07:00:37.302Z,31.46
2018-06-17T07:01:37.220Z,31.39
2018-06-17T07:02:37.142Z,30.78
2018-06-17T07:03:37.050Z,30.31
2018-06-17T07:04:36.972Z,30.48
2018-06-17T07:05:36.895Z,30.65
2018-06-17T07:06:36.804Z,30.65
2018-06-17T07:07:36.775Z,30.96
2018-06-17T07:08:36.647Z,30.99
2018-06-17T07:09:36.568Z,30.35
2018-06-17T07:10:36.476Z,30.31
2018-06-17T07:11:36.398Z,30.47
2018-06-17T07:12:36.320Z,30.83
2018-06-17T07:13:36.232Z,30.44
2018-06-17T07:14:36.155Z,30.32
2018-06-17T07:15:36.073Z,30.54
2018-06-17T07:16:35.995Z,30.30
2018-06-17T07:17:35.905Z,29.98
2018-06-17T07:18:35.825Z,29.98
2018-06-17T07:19:35.747Z,29.87
2018-06-17T07:20:35.919Z,30.03
2018-06-17T07:21:35.578Z,29.97
2018-06-17T07:22:35.500Z,29.91
2018-06-17T07:23:35.423Z,29.53
2018-06-17T07:24:35.344Z,30.32
2018-06-17T07:25:35.252Z,30.51
2018-06-17T07:26:35.174Z,29.76
2018-06-17T07:27:35.098Z,29.72
2018-06-17T07:28:35.017Z,29.14
2018-06-17T07:29:34.931Z,28.98
2018-06-17T07:30:34.849Z,29.29
2018-06-17T07:31:34.771Z,29.69
2018-06-17T07:32:34.745Z,30.02
2018-06-17T07:33:34.601Z,30.65
2018-06-17T07:34:34.522Z,30.37
2018-06-17T07:35:34.447Z,30.81
2018-06-17T07:36:34.368Z,30.70
2018-06-17T07:37:34.275Z,30.55
2018-06-17T07:38:34.198Z,30.35
2018-06-17T07:39:34.119Z,29.91
2018-06-17T07:40:34.029Z,29.73
2018-06-17T07:41:33.952Z,29.63
2018-06-17T07:42:33.874Z,29.91
2018-06-17T07:43:33.792Z,29.82
2018-06-17T07:44:33.703Z,30.32
2018-06-17T07:45:33.624Z,30.03
2018-06-17T07:46:33.548Z,30.31
2018-06-17T07:47:33.468Z,30.28
2018-06-17T07:48:33.377Z,30.35
2018-06-17T07:49:33.298Z,30.75
2018-06-17T07:50:33.220Z,30.84
2018-06-17T07:51:33.142Z,31.05
2018-06-17T07:52:33.051Z,31.34
2018-06-17T07:53:32.973Z,31.43
2018-06-17T07:54:32.895Z,31.64
2018-06-17T07:55:32.819Z,32.08
2018-06-17T07:56:32.724Z,32.07
2018-06-17T07:57:32.650Z,31.70
2018-06-17T07:58:32.568Z,31.73
2018-06-17T07:59:32.489Z,31.44
2018-06-17T08:00:32.399Z,31.89
2018-06-17T08:01:32.321Z,31.94
2018-06-17T08:02:32.243Z,32.16
2018-06-17T08:03:32.165Z,32.09
2018-06-17T08:04:32.074Z,31.36
2018-06-17T08:05:32.245Z,30.80
2018-06-17T08:06:31.917Z,30.40
2018-06-17T08:07:31.838Z,30.85
2018-06-17T08:08:31.761Z,30.85
2018-06-17T08:09:31.670Z,30.61
2018-06-17T08:10:31.592Z,30.54
2018-06-17T08:11:31.513Z,30.08
2018-06-17T08:12:31.435Z,30.13
2018-06-17T08:13:31.345Z,30.51
2018-06-17T08:14:31.265Z,30.30
2018-06-17T08:15:31.188Z,30.34
2018-06-17T08:16:31.108Z,30.73
2018-06-17T08:17:31.019Z,30.30
2018-06-17T08:18:30.939Z,29.02
2018-06-17T08:19:30.861Z,28.38
2018-06-17T08:20:30.783Z,27.65
2018-06-17T08:21:30.692Z,26.95
2018-06-17T08:22:30.618Z,26.93
2018-06-17T08:23:30.535Z,27.45
2018-06-17T08:24:30.445Z,28.47
2018-06-17T08:25:30.375Z,29.14
2018-06-17T08:26:30.289Z,29.87
2018-06-17T08:27:30.197Z,30.19
2018-06-17T08:28:30.118Z,29.97
2018-06-17T08:29:30.029Z,29.95
2018-06-17T08:30:30.215Z,30.40
2018-06-17T08:31:29.858Z,30.43
2018-06-17T08:32:29.781Z,30.92
2018-06-17T08:33:29.691Z,30.88
2018-06-17T08:34:29.613Z,30.88
2018-06-17T08:35:29.523Z,30.72
2018-06-17T08:36:29.447Z,31.15
2018-06-17T08:37:29.352Z,31.27
2018-06-17T08:38:29.273Z,31.61
2018-06-17T08:39:29.182Z,31.27
2018-06-17T08:40:29.107Z,30.34
2018-06-17T08:41:29.014Z,30.10
2018-06-17T08:42:28.935Z,30.47
2018-06-17T08:43:28.843Z,30.84
2018-06-17T08:44:28.766Z,30.21
2018-06-17T08:45:28.676Z,29.79
2018-06-17T08:46:28.597Z,29.86
2018-06-17T08:47:28.509Z,29.38
2018-06-17T08:48:28.427Z,29.47
2018-06-17T08:49:28.348Z,29.60
2018-06-17T08:50:28.261Z,29.19
2018-06-17T08:51:28.180Z,28.97
2018-06-17T08:52:28.089Z,28.76
2018-06-17T08:53:28.012Z,28.85
2018-06-17T08:54:27.932Z,28.32
2018-06-17T08:55:27.843Z,27.96
2018-06-17T08:56:27.764Z,28.08
2018-06-17T08:57:27.672Z,28.14
2018-06-17T08:58:27.594Z,28.07
2018-06-17T08:59:27.503Z,28.08
2018-06-17T09:00:27.426Z,28.74
2018-06-17T09:01:27.334Z,29.10
2018-06-17T09:02:27.255Z,29.88
2018-06-17T09:03:27.167Z,29.68
2018-06-17T09:04:27.087Z,30.32
2018-06-17T09:05:27.250Z,30.34
2018-06-17T09:06:26.917Z,30.65
2018-06-17T09:07:26.843Z,30.43
2018-06-17T09:08:26.750Z,30.77
2018-06-17T09:09:26.671Z,31.24
2018-06-17T09:10:26.601Z,32.01
2018-06-17T09:11:26.509Z,32.31
2018-06-17T09:12:26.428Z,31.37
2018-06-17T09:13:26.332Z,30.37
2018-06-17T09:14:26.255Z,30.59
2018-06-17T09:15:26.176Z,30.13
2018-06-17T09:16:26.085Z,30.34
2018-06-17T09:17:26.006Z,29.71
2018-06-17T09:18:25.917Z,29.98
2018-06-17T09:19:25.902Z,30.65
2018-06-17T09:20:26.062Z,31.07
2018-06-17T09:21:25.680Z,31.28
2018-06-17T09:22:25.593Z,30.78
2018-06-17T09:23:25.511Z,31.37
2018-06-17T09:24:25.433Z,31.52
2018-06-17T09:25:25.355Z,32.01
2018-06-17T09:26:25.265Z,31.46
2018-06-17T09:27:25.187Z,30.43
2018-06-17T09:28:25.108Z,31.20
2018-06-17T09:29:25.030Z,31.28
2018-06-17T09:30:24.939Z,31.77
2018-06-17T09:31:24.859Z,32.22
2018-06-17T09:32:24.781Z,32.53
2018-06-17T09:33:24.704Z,32.59
2018-06-17T09:34:24.625Z,32.45
2018-06-17T09:35:24.546Z,32.67
2018-06-17T09:36:24.459Z,31.58
2018-06-17T09:37:24.380Z,31.74
2018-06-17T09:38:24.300Z,31.76
2018-06-17T09:39:24.221Z,31.73
2018-06-17T09:40:24.143Z,31.73
2018-06-17T09:41:24.069Z,31.58
2018-06-17T09:42:23.976Z,31.62
2018-06-17T09:43:23.894Z,31.99
2018-06-17T09:44:23.861Z,31.97
2018-06-17T09:45:23.738Z,31.84
2018-06-17T09:46:23.660Z,31.39
2018-06-17T09:47:23.582Z,30.61
2018-06-17T09:48:23.504Z,30.51
2018-06-17T09:49:23.425Z,30.72
2018-06-17T09:50:23.348Z,30.37
2018-06-17T09:51:23.268Z,30.31
2018-06-17T09:52:23.190Z,31.12
2018-06-17T09:53:23.112Z,30.65
2018-06-17T09:54:23.033Z,30.08
2018-06-17T09:55:22.944Z,30.57
2018-06-17T09:56:22.865Z,30.78
2018-06-17T09:57:22.787Z,30.83
2018-06-17T09:58:22.754Z,30.35
2018-06-17T09:59:22.630Z,30.59
2018-06-17T10:00:22.552Z,30.53
2018-06-17T10:01:22.474Z,30.66
2018-06-17T10:02:22.396Z,30.87
2018-06-17T10:03:22.317Z,30.31
2018-06-17T10:04:22.227Z,29.42
2018-06-17T10:05:22.160Z,29.34
2018-06-17T10:06:22.069Z,29.82
2018-06-17T10:07:21.991Z,30.32
2018-06-17T10:08:21.913Z,31.05
2018-06-17T10:09:21.834Z,31.22
2018-06-17T10:10:21.744Z,31.20
2018-06-17T10:11:21.666Z,31.94
2018-06-17T10:12:21.588Z,31.94
2018-06-17T10:13:21.509Z,31.31
2018-06-17T10:14:21.432Z,31.40
2018-06-17T10:15:21.340Z,31.73
2018-06-17T10:16:21.261Z,32.19
2018-06-17T10:17:21.182Z,32.49
2018-06-17T10:18:21.103Z,32.90
2018-06-17T10:19:21.026Z,33.04
2018-06-17T10:20:21.197Z,32.49
2018-06-17T10:21:20.869Z,32.87
2018-06-17T10:22:20.791Z,33.40
2018-06-17T10:23:20.713Z,32.83
2018-06-17T10:24:20.634Z,32.73
2018-06-17T10:25:20.560Z,33.09
2018-06-17T10:26:20.478Z,32.63
2018-06-17T10:27:20.399Z,32.83
2018-06-17T10:28:20.334Z,31.84
2018-06-17T10:29:20.303Z,31.62
2018-06-17T10:30:20.164Z,31.20
2018-06-17T10:31:20.086Z,30.92
2018-06-17T10:32:20.008Z,30.57
2018-06-17T10:33:19.930Z,31.37
2018-06-17T10:34:19.850Z,31.77
2018-06-17T10:35:19.773Z,31.99
2018-06-17T10:36:19.694Z,32.45
2018-06-17T10:37:19.604Z,32.53
2018-06-17T10:38:19.527Z,32.31
2018-06-17T10:39:19.473Z,32.16
2018-06-17T10:40:19.381Z,32.21
2018-06-17T10:41:19.303Z,31.77
2018-06-17T10:42:19.224Z,31.39
2018-06-17T10:43:19.147Z,31.84
2018-06-17T10:44:19.122Z,31.69
2018-06-17T10:45:18.990Z,30.97
2018-06-17T10:46:18.911Z,31.31
2018-06-17T10:47:18.832Z,31.92
2018-06-17T10:48:18.762Z,31.96
2018-06-17T10:49:18.676Z,32.03
2018-06-17T10:50:18.599Z,31.24
2018-06-17T10:51:18.520Z,31.66
2018-06-17T10:52:18.441Z,32.37
2018-06-17T10:53:18.363Z,33.36
2018-06-17T10:54:18.285Z,33.34
2018-06-17T10:55:18.208Z,32.86
2018-06-17T10:56:18.231Z,32.73
2018-06-17T10:57:18.063Z,31.80
2018-06-17T10:58:17.984Z,30.63
2018-06-17T10:59:17.907Z,30.94
2018-06-17T11:00:18.078Z,31.17
2018-06-17T11:01:17.807Z,32.04
2018-06-17T11:02:17.672Z,32.23
2018-06-17T11:03:17.608Z,32.52
2018-06-17T11:04:17.515Z,32.71
2018-06-17T11:05:17.494Z,33.22
2018-06-17T11:06:17.358Z,32.60
2018-06-17T11:07:17.280Z,32.64
2018-06-17T11:08:17.204Z,32.11
2018-06-17T11:09:17.123Z,31.03
2018-06-17T11:10:17.047Z,29.81
2018-06-17T11:11:16.967Z,29.22
2018-06-17T11:12:16.888Z,28.59
2018-06-17T11:13:16.835Z,28.48
2018-06-17T11:14:16.731Z,28.38
2018-06-17T11:15:16.653Z,28.07
2018-06-17T11:16:16.566Z,28.10
2018-06-17T11:17:16.486Z,28.07
2018-06-17T11:18:16.405Z,28.11
2018-06-17T11:19:16.327Z,28.38
2018-06-17T11:20:16.248Z,28.27
2018-06-17T11:21:16.159Z,28.05
2018-06-17T11:22:16.081Z,28.07
2018-06-17T11:23:16.001Z,27.68
2018-06-17T11:24:15.924Z,27.58
2018-06-17T11:25:15.832Z,27.33
2018-06-17T11:26:15.756Z,26.84
2018-06-17T11:27:15.675Z,26.66
2018-06-17T11:28:15.587Z,26.55
2018-06-17T11:29:15.507Z,26.81
2018-06-17T11:30:15.417Z,26.89
2018-06-17T11:31:15.337Z,27.07
2018-06-17T11:32:15.259Z,26.89
2018-06-17T11:33:15.169Z,26.90
2018-06-17T11:34:15.090Z,26.95
2018-06-17T11:35:14.999Z,27.03
2018-06-17T11:36:14.921Z,27.35
2018-06-17T11:37:14.831Z,27.45
2018-06-17T11:38:14.741Z,27.70
2018-06-17T11:39:14.663Z,27.93
2018-06-17T11:40:14.832Z,27.93
2018-06-17T11:41:14.493Z,28.08
2018-06-17T11:42:14.401Z,28.76
2018-06-17T11:43:14.323Z,28.81
2018-06-17T11:44:14.233Z,28.11
2018-06-17T11:45:14.155Z,27.78
2018-06-17T11:46:14.063Z,27.55
2018-06-17T11:47:13.985Z,27.90
2018-06-17T11:48:13.895Z,28.59
2018-06-17T11:49:13.816Z,29.02
2018-06-17T11:50:13.725Z,29.22
2018-06-17T11:51:13.647Z,29.76
2018-06-17T11:52:13.556Z,30.15
2018-06-17T11:53:13.478Z,30.32
2018-06-17T11:54:13.386Z,30.69
2018-06-17T11:55:13.308Z,30.10
2018-06-17T11:56:13.218Z,30.30
2018-06-17T11:57:13.144Z,30.35
2018-06-17T11:58:13.061Z,30.35
2018-06-17T11:59:12.969Z,30.32
2018-06-17T12:00:12.894Z,30.13
2018-06-17T12:01:12.813Z,30.16
2018-06-17T12:02:12.723Z,29.45
2018-06-17T12:03:12.645Z,28.86
2018-06-17T12:04:12.566Z,28.27
2018-06-17T12:05:12.474Z,27.70
2018-06-17T12:06:12.396Z,26.96
2018-06-17T12:07:12.322Z,27.07
2018-06-17T12:08:12.228Z,27.30
2018-06-17T12:09:12.153Z,27.22
2018-06-17T12:10:12.071Z,27.20
2018-06-17T12:11:11.981Z,27.02
2018-06-17T12:12:11.901Z,26.73
2018-06-17T12:13:11.823Z,26.74
2018-06-17T12:14:11.745Z,26.88
2018-06-17T12:15:11.656Z,27.36
2018-06-17T12:16:11.577Z,27.47
2018-06-17T12:17:11.498Z,27.70
2018-06-17T12:18:11.407Z,27.55
2018-06-17T12:19:11.341Z,27.54
2018-06-17T12:20:11.250Z,27.36
2018-06-17T12:21:11.162Z,27.39
2018-06-17T12:22:11.081Z,27.25
2018-06-17T12:23:11.004Z,27.18
2018-06-17T12:24:10.913Z,27.29
2018-06-17T12:25:10.833Z,27.25
2018-06-17T12:26:10.755Z,27.03
2018-06-17T12:27:10.665Z,26.95
2018-06-17T12:28:10.587Z,27.35
2018-06-17T12:29:10.496Z,27.83
2018-06-17T12:30:10.417Z,28.22
2018-06-17T12:31:10.326Z,28.17
2018-06-17T12:32:10.248Z,28.25
2018-06-17T12:33:10.170Z,28.45
2018-06-17T12:34:10.080Z,28.56
2018-06-17T12:35:09.988Z,28.44
2018-06-17T12:36:09.911Z,28.12
2018-06-17T12:37:09.819Z,28.10
2018-06-17T12:38:09.740Z,28.19
2018-06-17T12:39:09.650Z,27.98
2018-06-17T12:40:09.571Z,28.01
2018-06-17T12:41:09.480Z,27.74
2018-06-17T12:42:09.390Z,27.74
2018-06-17T12:43:09.311Z,27.52
2018-06-17T12:44:09.220Z,27.54
2018-06-17T12:45:09.142Z,27.25
2018-06-17T12:46:09.052Z,27.29
2018-06-17T12:47:08.960Z,27.29
2018-06-17T12:48:08.882Z,27.52
2018-06-17T12:49:08.793Z,27.44
2018-06-17T12:50:08.717Z,27.42
2018-06-17T12:51:08.622Z,27.11